createdAt,value
2017-11-18T00:00:20.984Z,19.75
2017-11-18T00:02:48.514Z,18.52
2017-11-18T00:05:16.024Z,19.90
2017-11-18T00:07:43.534Z,23.65
2017-11-18T00:10:11.989Z,17.60
2017-11-18T00:12:39.884Z,20.15
2017-11-18T00:15:07.404Z,19.62
2017-11-18T00:17:34.912Z,19.70
2017-11-18T00:20:02.404Z,19.20
2017-11-18T00:22:29.929Z,17.12
2017-11-18T00:24:57.434Z,21.37
2017-11-18T00:27:25.360Z,20.98
2017-11-18T00:29:52.856Z,19.67
2017-11-18T00:32:20.813Z,23.02
2017-11-18T00:34:48.302Z,18.90
2017-11-18T00:37:17.172Z,18.23
2017-11-18T00:39:46.002Z,20.80
2017-11-18T00:42:13.497Z,19.70
2017-11-18T00:44:42.964Z,21.52
2017-11-18T00:47:10.480Z,19.50
2017-11-18T00:49:49.512Z,22.10
2017-11-18T00:52:17.426Z,21.50
2017-11-18T00:54:44.913Z,19.30
2017-11-18T00:57:12.408Z,19.85
2017-11-18T00:59:39.936Z,21.52
2017-11-18T01:02:07.458Z,20.08
2017-11-18T01:04:34.965Z,20.75
2017-11-18T01:07:02.440Z,19.70
2017-11-18T01:09:29.955Z,27.98
2017-11-18T01:11:57.453Z,25.10
2017-11-18T01:14:25.353Z,21.73
2017-11-18T01:16:52.828Z,21.58
2017-11-18T01:19:20.311Z,20.23
2017-11-18T01:21:47.844Z,22.75
2017-11-18T01:24:15.327Z,24.70
2017-11-18T01:26:42.815Z,22.25
2017-11-18T01:29:10.700Z,22.52
2017-11-18T01:31:38.201Z,22.08
2017-11-18T01:34:05.717Z,22.20
2017-11-18T01:36:33.220Z,23.12
2017-11-18T01:39:00.718Z,23.42
2017-11-18T01:41:28.596Z,21.15
2017-11-18T01:43:56.107Z,22.45
2017-11-18T01:46:23.604Z,26.27
2017-11-18T01:48:51.104Z,24.15
2017-11-18T01:51:19.545Z,21.58
2017-11-18T01:53:47.051Z,22.67
2017-11-18T01:56:14.531Z,21.23
2017-11-18T01:58:42.050Z,23.70
2017-11-18T02:01:09.551Z,19.58
2017-11-18T02:03:37.459Z,21.70
2017-11-18T02:06:04.962Z,20.42
2017-11-18T02:08:32.445Z,21.15
2017-11-18T02:11:02.320Z,23.52
2017-11-18T02:13:29.805Z,24.35
2017-11-18T02:15:57.724Z,19.33
2017-11-18T02:18:25.216Z,19.20
2017-11-18T02:20:52.717Z,23.80
2017-11-18T02:23:20.641Z,18.98
2017-11-18T02:25:48.138Z,22.83
2017-11-18T02:28:15.646Z,21.55
2017-11-18T02:30:43.124Z,23.80
2017-11-18T02:33:10.628Z,17.67
2017-11-18T02:35:38.116Z,18.50
2017-11-18T02:38:05.628Z,19.85
2017-11-18T02:40:33.114Z,17.73
2017-11-18T02:43:00.591Z,19.10
2017-11-18T02:45:28.099Z,22.70
2017-11-18T02:47:56.920Z,19.23
2017-11-18T02:50:26.398Z,16.60
2017-11-18T02:52:53.923Z,19.05
2017-11-18T02:57:56.454Z,15.20
2017-11-18T03:00:23.960Z,18.98
2017-11-18T03:02:51.467Z,16.73
2017-11-18T03:05:18.993Z,18.50
2017-11-18T03:07:48.478Z,17.25
2017-11-18T03:10:15.972Z,21.30
2017-11-18T03:12:43.859Z,18.45
2017-11-18T03:15:11.368Z,17.73
2017-11-18T03:17:38.860Z,19.62
2017-11-18T03:20:06.753Z,17.02
2017-11-18T03:22:34.266Z,15.32
2017-11-18T03:25:01.756Z,16.77
2017-11-18T03:27:29.259Z,17.02
2017-11-18T03:29:57.706Z,13.82
2017-11-18T03:32:25.187Z,16.00
2017-11-18T03:34:52.697Z,15.93
2017-11-18T03:37:20.605Z,15.45
2017-11-18T03:39:48.128Z,19.00
2017-11-18T03:42:15.606Z,18.60
2017-11-18T03:44:43.117Z,17.25
2017-11-18T03:47:10.600Z,17.37
2017-11-18T03:49:38.505Z,16.40
2017-11-18T03:52:05.990Z,16.50
2017-11-18T03:54:33.508Z,16.75
2017-11-18T03:57:01.946Z,15.25
2017-11-18T03:59:29.464Z,16.30
2017-11-18T04:01:56.964Z,17.27
2017-11-18T04:04:24.852Z,15.90
2017-11-18T04:06:52.355Z,16.62
2017-11-18T04:09:19.841Z,16.08
2017-11-18T04:11:48.307Z,17.45
2017-11-18T04:14:15.826Z,12.75
2017-11-18T04:16:43.321Z,15.38
2017-11-18T04:19:11.855Z,16.85
2017-11-18T04:21:39.354Z,14.20
2017-11-18T04:24:06.848Z,14.27
2017-11-18T04:26:34.339Z,13.35
2017-11-18T04:29:03.819Z,14.23
2017-11-18T04:31:31.706Z,14.18
2017-11-18T04:34:00.907Z,12.40
2017-11-18T04:36:30.391Z,11.77
2017-11-18T04:38:58.270Z,14.90
2017-11-18T04:41:25.777Z,13.55
2017-11-18T04:43:53.273Z,17.23
2017-11-18T04:46:20.789Z,14.15
2017-11-18T04:48:48.279Z,13.25
2017-11-18T04:51:16.168Z,12.55
2017-11-18T04:53:43.679Z,11.55
2017-11-18T04:56:11.165Z,13.68
2017-11-18T04:58:39.088Z,13.55
2017-11-18T05:01:07.504Z,14.48
2017-11-18T05:03:35.444Z,14.35
2017-11-18T05:06:02.936Z,13.38
2017-11-18T05:08:30.840Z,15.02
2017-11-18T05:10:58.407Z,12.98
2017-11-18T05:13:25.892Z,13.20
2017-11-18T05:15:53.403Z,11.70
2017-11-18T05:18:20.884Z,13.77
2017-11-18T05:20:49.340Z,11.75
2017-11-18T05:23:16.862Z,13.75
2017-11-18T05:25:46.279Z,13.27
2017-11-18T05:28:14.228Z,15.40
2017-11-18T05:30:41.720Z,12.02
2017-11-18T05:33:09.618Z,11.65
2017-11-18T05:35:37.104Z,12.85
2017-11-18T05:38:04.605Z,11.57
2017-11-18T05:40:32.104Z,13.20
2017-11-18T05:42:59.591Z,12.40
2017-11-18T05:45:27.095Z,11.75
2017-11-18T05:47:54.579Z,14.18
2017-11-18T05:50:24.050Z,13.02
2017-11-18T05:52:51.541Z,14.18
2017-11-18T05:55:19.038Z,12.37
2017-11-18T05:57:46.949Z,12.13
2017-11-18T06:00:14.454Z,14.35
2017-11-18T06:02:41.953Z,12.60
2017-11-18T06:05:09.455Z,11.43
2017-11-18T06:07:38.957Z,11.70
2017-11-18T06:10:06.456Z,13.80
2017-11-18T06:12:34.408Z,12.52
2017-11-18T06:15:02.296Z,13.13
2017-11-18T06:17:29.782Z,12.60
2017-11-18T06:19:57.433Z,13.43
2017-11-18T06:22:26.868Z,11.23
2017-11-18T06:24:54.359Z,12.25
2017-11-18T06:27:22.243Z,11.80
2017-11-18T06:29:50.169Z,13.30
2017-11-18T06:32:17.665Z,12.02
2017-11-18T06:34:45.154Z,13.62
2017-11-18T06:37:12.668Z,12.55
2017-11-18T06:39:40.548Z,14.50
2017-11-18T06:42:08.440Z,11.30
2017-11-18T06:44:36.900Z,13.85
2017-11-18T06:47:04.797Z,12.40
2017-11-18T06:49:32.280Z,11.00
2017-11-18T06:51:59.775Z,11.43
2017-11-18T06:54:27.659Z,13.00
2017-11-18T06:56:55.146Z,12.60
2017-11-18T06:59:22.666Z,10.95
2017-11-18T07:01:50.148Z,10.40
2017-11-18T07:04:17.645Z,10.73
2017-11-18T07:06:45.165Z,10.80
2017-11-18T07:09:12.691Z,11.38
2017-11-18T07:11:40.189Z,12.77
2017-11-18T07:14:07.677Z,12.48
2017-11-18T07:16:35.201Z,11.32
2017-11-18T07:19:02.687Z,10.73
2017-11-18T07:21:32.127Z,9.75
2017-11-18T07:23:59.991Z,9.23
2017-11-18T07:26:27.498Z,12.00
2017-11-18T07:28:55.000Z,13.75
2017-11-18T07:31:24.851Z,9.93
2017-11-18T07:33:52.353Z,11.12
2017-11-18T07:36:19.837Z,11.20
2017-11-18T07:38:47.732Z,9.63
2017-11-18T07:41:15.212Z,10.45
2017-11-18T07:43:42.712Z,10.70
2017-11-18T07:46:11.554Z,12.70
2017-11-18T07:48:39.078Z,11.98
2017-11-18T07:51:06.558Z,12.23
2017-11-18T07:53:34.068Z,12.00
2017-11-18T07:56:01.581Z,11.23
2017-11-18T07:58:29.075Z,11.98
2017-11-18T08:00:56.573Z,11.05
2017-11-18T08:03:24.053Z,13.10
2017-11-18T08:05:52.645Z,13.35
2017-11-18T08:08:20.124Z,9.18
2017-11-18T08:10:47.619Z,13.70
2017-11-18T08:13:15.496Z,10.13
2017-11-18T08:15:42.984Z,11.45
2017-11-18T08:18:10.485Z,9.98
2017-11-18T08:20:38.371Z,10.90
2017-11-18T08:23:06.331Z,13.32
2017-11-18T08:25:34.220Z,8.50
2017-11-18T08:28:01.734Z,10.55
2017-11-18T08:30:29.226Z,10.93
2017-11-18T08:32:59.264Z,12.43
2017-11-18T08:35:26.764Z,11.85
2017-11-18T08:37:54.252Z,12.07
2017-11-18T08:40:24.100Z,12.20
2017-11-18T08:42:51.591Z,11.07
2017-11-18T08:45:19.741Z,11.75
2017-11-18T08:47:47.229Z,11.98
2017-11-18T08:50:14.732Z,10.85
2017-11-18T08:52:42.216Z,11.35
2017-11-18T08:55:09.751Z,12.23
2017-11-18T08:57:37.260Z,12.60
2017-11-18T09:00:04.771Z,12.48
2017-11-18T09:02:32.283Z,12.32
2017-11-18T09:04:59.763Z,10.85
2017-11-18T09:07:27.662Z,12.88
2017-11-18T09:09:55.157Z,12.20
2017-11-18T09:12:22.656Z,12.37
2017-11-18T09:14:50.137Z,15.02
2017-11-18T09:17:17.619Z,11.32
2017-11-18T09:19:45.167Z,12.50
2017-11-18T09:22:12.650Z,12.15
2017-11-18T09:24:40.149Z,13.55
2017-11-18T09:27:08.587Z,13.23
2017-11-18T09:29:36.157Z,13.23
2017-11-18T09:32:03.660Z,13.30
2017-11-18T09:34:31.158Z,13.90
2017-11-18T09:36:59.605Z,11.48
2017-11-18T09:39:27.104Z,13.27
2017-11-18T09:41:55.048Z,13.82
2017-11-18T09:44:24.317Z,11.98
2017-11-18T09:46:51.825Z,12.20
2017-11-18T09:49:20.330Z,13.13
2017-11-18T09:51:48.225Z,11.95
2017-11-18T09:54:15.727Z,12.65
2017-11-18T09:56:43.219Z,12.93
2017-11-18T09:59:11.111Z,12.05
2017-11-18T10:01:38.608Z,11.32
2017-11-18T10:04:06.117Z,12.05
2017-11-18T10:06:33.599Z,13.70
2017-11-18T10:09:01.104Z,13.00
2017-11-18T10:11:29.000Z,11.98
2017-11-18T10:13:56.553Z,11.12
2017-11-18T10:16:24.036Z,12.60
2017-11-18T10:18:51.526Z,11.73
2017-11-18T10:21:19.023Z,10.43
2017-11-18T10:23:46.511Z,12.10
2017-11-18T10:26:14.024Z,10.43
2017-11-18T10:28:41.918Z,11.45
2017-11-18T10:31:09.436Z,12.15
2017-11-18T10:33:36.925Z,10.70
2017-11-18T10:36:04.840Z,10.10
2017-11-18T10:38:32.362Z,11.48
2017-11-18T10:40:59.836Z,11.80
2017-11-18T10:43:27.332Z,9.43
2017-11-18T10:45:54.817Z,10.15
2017-11-18T10:48:22.745Z,9.57
2017-11-18T10:50:50.230Z,12.15
2017-11-18T10:53:18.115Z,10.85
2017-11-18T10:55:46.009Z,9.75
2017-11-18T10:58:13.489Z,8.63
2017-11-18T11:00:40.997Z,9.80
2017-11-18T11:03:08.877Z,8.45
2017-11-18T11:05:36.367Z,8.27
2017-11-18T11:08:10.067Z,8.60
2017-11-18T11:10:37.565Z,8.20
2017-11-18T11:13:05.446Z,8.15
2017-11-18T11:15:33.327Z,7.20
2017-11-18T11:18:02.749Z,7.87
2017-11-18T11:20:30.232Z,6.75
2017-11-18T11:22:57.732Z,7.68
2017-11-18T11:25:26.203Z,6.22
2017-11-18T11:27:54.086Z,7.20
2017-11-18T11:30:22.836Z,5.68
2017-11-18T11:32:50.319Z,6.15
2017-11-18T11:35:18.780Z,4.22
2017-11-18T11:37:46.262Z,4.57
2017-11-18T11:40:14.147Z,4.05
2017-11-18T11:42:41.624Z,4.62
2017-11-18T11:45:10.647Z,4.50
2017-11-18T11:47:38.128Z,4.65
2017-11-18T11:50:06.005Z,5.10
2017-11-18T11:52:33.912Z,4.25
2017-11-18T11:55:01.388Z,5.07
2017-11-18T11:57:28.859Z,5.60
2017-11-18T11:59:56.348Z,5.15
2017-11-18T12:02:23.826Z,5.62
2017-11-18T12:04:51.329Z,4.72
2017-11-18T12:07:18.813Z,4.65
2017-11-18T12:09:46.704Z,5.07
2017-11-18T12:12:14.192Z,5.00
2017-11-18T12:14:41.705Z,4.55
2017-11-18T12:17:09.572Z,4.10
2017-11-18T12:19:37.469Z,4.87
2017-11-18T12:22:04.981Z,4.20
2017-11-18T12:24:32.470Z,4.87
2017-11-18T12:26:59.948Z,3.20
2017-11-18T12:29:27.475Z,3.35
2017-11-18T12:31:55.374Z,2.75
2017-11-18T12:34:22.865Z,2.75
2017-11-18T12:36:50.366Z,3.00
2017-11-18T12:39:17.864Z,2.50
2017-11-18T12:41:45.340Z,3.05
2017-11-18T12:44:12.827Z,3.00
2017-11-18T12:46:40.754Z,3.00
2017-11-18T12:49:08.669Z,4.25
2017-11-18T12:51:37.136Z,4.00
2017-11-18T12:54:05.025Z,3.45
2017-11-18T12:56:32.533Z,3.70
2017-11-18T12:59:00.008Z,2.85
2017-11-18T13:01:27.487Z,3.90
2017-11-18T13:03:55.385Z,3.15
2017-11-18T13:06:22.876Z,3.75
2017-11-18T13:08:52.324Z,3.22
2017-11-18T13:11:20.730Z,2.90
2017-11-18T13:13:48.232Z,4.62
2017-11-18T13:16:15.712Z,2.90
2017-11-18T13:18:43.588Z,3.08
2017-11-18T13:21:11.084Z,3.45
2017-11-18T13:23:38.556Z,3.90
2017-11-18T13:26:06.053Z,3.28
2017-11-18T13:28:33.924Z,3.28
2017-11-18T13:31:01.478Z,3.78
2017-11-18T13:33:29.417Z,3.15
2017-11-18T13:35:56.917Z,3.22
2017-11-18T13:38:24.935Z,2.62
2017-11-18T13:40:52.407Z,4.28
2017-11-18T13:43:19.907Z,4.32
2017-11-18T13:45:47.381Z,3.60
2017-11-18T13:48:14.873Z,3.50
2017-11-18T13:50:42.375Z,3.45
2017-11-18T13:53:09.873Z,3.58
2017-11-18T13:55:37.357Z,2.92
2017-11-18T13:58:04.830Z,2.75
2017-11-18T14:00:33.512Z,2.80
2017-11-18T14:03:01.424Z,3.25
2017-11-18T14:05:28.961Z,2.90
2017-11-18T14:07:56.472Z,2.60
2017-11-18T14:10:23.971Z,3.12
2017-11-18T14:12:53.420Z,3.08
2017-11-18T14:15:20.907Z,2.83
2017-11-18T14:17:48.835Z,4.53
2017-11-18T14:20:17.266Z,3.00
2017-11-18T14:22:45.145Z,3.40
2017-11-18T14:25:12.689Z,3.75
2017-11-18T14:27:40.590Z,4.22
2017-11-18T14:30:08.140Z,4.03
2017-11-18T14:32:35.620Z,3.83
2017-11-18T14:35:03.149Z,4.72
2017-11-18T14:37:30.680Z,4.03
2017-11-18T14:40:02.934Z,3.90
2017-11-18T14:42:30.465Z,3.22
2017-11-18T14:44:58.905Z,3.83
2017-11-18T14:47:26.808Z,3.12
2017-11-18T14:49:54.305Z,3.58
2017-11-18T14:52:21.846Z,3.75
2017-11-18T14:54:49.345Z,4.87
2017-11-18T14:57:17.244Z,4.12
2017-11-18T14:59:44.768Z,3.85
2017-11-18T15:02:12.647Z,3.90
2017-11-18T15:04:40.558Z,3.40
2017-11-18T15:07:08.045Z,3.28
2017-11-18T15:09:35.670Z,3.35
2017-11-18T15:12:03.186Z,2.95
2017-11-18T15:14:31.066Z,3.17
2017-11-18T15:17:07.279Z,3.28
2017-11-18T15:19:41.275Z,3.47
2017-11-18T15:22:11.459Z,2.62
2017-11-18T15:24:44.673Z,2.62
2017-11-18T15:27:17.840Z,2.60
2017-11-18T15:30:04.136Z,3.25
2017-11-18T15:32:36.277Z,3.08
2017-11-18T15:35:13.689Z,2.12
2017-11-18T15:37:47.269Z,2.80
2017-11-18T15:40:15.180Z,2.30
2017-11-18T15:42:42.665Z,3.37
2017-11-18T15:45:10.136Z,2.25
2017-11-18T15:47:52.544Z,2.45
2017-11-18T15:50:20.028Z,3.10
2017-11-18T15:53:06.595Z,2.40
2017-11-18T15:55:49.857Z,2.30
2017-11-18T15:58:24.601Z,2.90
2017-11-18T16:01:12.331Z,2.67
2017-11-18T16:03:57.916Z,2.65
2017-11-18T16:06:41.107Z,2.80
2017-11-18T16:09:09.897Z,2.35
2017-11-18T16:11:37.828Z,2.60
2017-11-18T16:14:05.305Z,2.92
2017-11-18T16:16:32.793Z,3.05
2017-11-18T16:19:00.753Z,2.30
2017-11-18T16:21:28.701Z,2.55
2017-11-18T16:23:56.201Z,2.70
2017-11-18T16:26:24.068Z,2.95
2017-11-18T16:28:52.781Z,2.30
2017-11-18T16:31:20.497Z,2.15
2017-11-18T16:33:48.064Z,2.90
2017-11-18T16:36:15.592Z,2.35
2017-11-18T16:38:43.133Z,2.45
2017-11-18T16:41:10.691Z,4.45
2017-11-18T16:43:38.242Z,2.05
2017-11-18T16:46:05.807Z,2.45
2017-11-18T16:48:34.333Z,2.35
2017-11-18T16:51:01.856Z,2.65
2017-11-18T16:53:29.405Z,2.30
2017-11-18T16:55:58.037Z,2.85
2017-11-18T16:58:26.185Z,2.62
2017-11-18T17:00:53.866Z,2.50
2017-11-18T17:03:23.631Z,2.85
2017-11-18T17:05:51.583Z,2.30
2017-11-18T17:08:20.209Z,3.12
2017-11-18T17:10:47.846Z,3.17
2017-11-18T17:13:15.431Z,2.65
2017-11-18T17:15:43.976Z,2.90
2017-11-18T17:18:11.621Z,2.20
2017-11-18T17:20:39.622Z,2.42
2017-11-18T17:23:07.174Z,2.03
2017-11-18T17:25:34.678Z,2.37
2017-11-18T17:28:03.162Z,2.97
2017-11-18T17:30:30.785Z,2.17
2017-11-18T17:32:59.350Z,3.33
2017-11-18T17:35:26.931Z,2.17
2017-11-18T17:37:54.484Z,2.65
2017-11-18T17:40:22.015Z,2.78
2017-11-18T17:42:50.020Z,2.87
2017-11-18T17:45:17.557Z,2.00
2017-11-18T17:47:45.145Z,1.85
2017-11-18T17:50:12.765Z,2.42
2017-11-18T17:52:40.672Z,2.75
2017-11-18T17:55:08.297Z,2.08
2017-11-18T17:57:36.201Z,1.65
2017-11-18T18:00:03.765Z,1.73
2017-11-18T18:02:31.901Z,2.97
2017-11-18T18:04:59.482Z,1.65
2017-11-18T18:07:27.979Z,1.98
2017-11-18T18:09:55.520Z,2.00
2017-11-18T18:12:24.009Z,1.85
2017-11-18T18:14:51.634Z,2.08
2017-11-18T18:17:20.163Z,2.80
2017-11-18T18:19:47.880Z,1.52
2017-11-18T18:22:15.500Z,2.10
2017-11-18T18:25:03.917Z,1.60
2017-11-18T18:27:31.553Z,2.03
2017-11-18T18:29:59.112Z,2.10
2017-11-18T18:32:28.577Z,1.95
2017-11-18T18:34:56.991Z,1.90
2017-11-18T18:37:26.547Z,1.60
2017-11-18T18:39:54.483Z,1.90
2017-11-18T18:42:23.006Z,1.60
2017-11-18T18:44:50.520Z,2.17
2017-11-18T18:47:18.068Z,2.25
2017-11-18T18:49:46.071Z,1.75
2017-11-18T18:52:13.700Z,2.20
2017-11-18T18:54:41.285Z,2.17
2017-11-18T18:57:08.945Z,1.67
2017-11-18T18:59:36.624Z,1.73
2017-11-18T19:02:04.406Z,2.60
2017-11-18T19:04:32.216Z,1.80
2017-11-18T19:06:59.909Z,2.30
2017-11-18T19:09:27.640Z,2.50
2017-11-18T19:11:56.525Z,2.30
2017-11-18T19:14:24.265Z,2.00
2017-11-18T19:16:51.984Z,2.30
2017-11-18T19:19:20.502Z,1.48
2017-11-18T19:21:48.160Z,2.15
2017-11-18T19:24:15.841Z,2.40
2017-11-18T19:26:43.521Z,2.50
2017-11-18T19:29:11.089Z,2.33
2017-11-18T19:31:39.020Z,2.10
2017-11-18T19:34:06.546Z,3.17
2017-11-18T19:36:34.073Z,3.05
2017-11-18T19:39:01.605Z,2.60
2017-11-18T19:41:29.900Z,2.40
2017-11-18T19:43:58.088Z,1.87
2017-11-18T19:46:25.869Z,2.20
2017-11-18T19:48:53.400Z,2.78
2017-11-18T19:51:21.530Z,2.42
2017-11-18T19:53:51.012Z,3.20
2017-11-18T19:56:18.576Z,2.53
2017-11-18T19:58:46.247Z,2.17
2017-11-18T20:01:13.802Z,2.72
2017-11-18T20:03:41.345Z,2.17
2017-11-18T20:06:09.732Z,2.33
2017-11-18T20:08:37.301Z,3.28
2017-11-18T20:11:05.120Z,2.90
2017-11-18T20:13:33.097Z,2.70
2017-11-18T20:16:00.744Z,3.00
2017-11-18T20:18:29.706Z,2.03
2017-11-18T20:20:57.215Z,2.85
2017-11-18T20:23:24.763Z,3.78
2017-11-18T20:25:52.781Z,2.95
2017-11-18T20:28:20.595Z,2.78
2017-11-18T20:30:48.581Z,2.75
2017-11-18T20:33:16.143Z,3.55
2017-11-18T20:35:43.887Z,3.10
2017-11-18T20:38:11.807Z,3.70
2017-11-18T20:40:41.267Z,3.30
2017-11-18T20:43:09.271Z,2.70
2017-11-18T20:45:37.885Z,3.42
2017-11-18T20:48:06.393Z,2.97
2017-11-18T20:50:35.019Z,2.80
2017-11-18T20:53:02.620Z,3.70
2017-11-18T20:55:30.168Z,3.28
2017-11-18T20:57:57.692Z,3.12
2017-11-18T21:00:26.272Z,3.70
2017-11-18T21:02:53.947Z,4.43
2017-11-18T21:05:21.468Z,3.45
2017-11-18T21:07:51.437Z,2.95
2017-11-18T21:10:18.992Z,3.03
2017-11-18T21:12:46.730Z,4.57
2017-11-18T21:15:14.265Z,3.35
2017-11-18T21:17:41.864Z,3.70
2017-11-18T21:20:09.484Z,4.05
2017-11-18T21:22:38.511Z,3.97
2017-11-18T21:25:06.149Z,3.80
2017-11-18T21:27:33.715Z,3.58
2017-11-18T21:30:01.344Z,4.72
2017-11-18T21:32:29.228Z,3.28
2017-11-18T21:34:57.996Z,3.90
2017-11-18T21:37:25.560Z,4.65
2017-11-18T21:39:53.498Z,4.93
2017-11-18T21:42:21.047Z,4.18
2017-11-18T21:44:48.692Z,4.20
2017-11-18T21:47:19.272Z,4.28
2017-11-18T21:49:47.247Z,4.62
2017-11-18T21:52:15.310Z,3.72
2017-11-18T21:54:42.972Z,4.40
2017-11-18T21:57:12.881Z,4.90
2017-11-18T21:59:40.524Z,5.05
2017-11-18T22:02:08.288Z,5.00
2017-11-18T22:04:35.854Z,6.00
2017-11-18T22:07:03.573Z,5.07
2017-11-18T22:09:31.566Z,4.50
2017-11-18T22:11:59.149Z,4.57
2017-11-18T22:14:27.704Z,5.47
2017-11-18T22:16:55.265Z,5.25
2017-11-18T22:19:22.813Z,6.12
2017-11-18T22:21:51.329Z,5.22
2017-11-18T22:24:18.897Z,5.35
2017-11-18T22:26:46.537Z,5.25
2017-11-18T22:29:14.298Z,6.07
2017-11-18T22:31:42.986Z,6.37
2017-11-18T22:34:11.504Z,6.65
2017-11-18T22:36:39.541Z,5.28
2017-11-18T22:39:07.076Z,5.97
2017-11-18T22:41:35.013Z,5.40
2017-11-18T22:44:03.021Z,5.55
2017-11-18T22:46:30.628Z,5.68
2017-11-18T22:48:58.193Z,5.15
2017-11-18T22:51:25.739Z,6.32
2017-11-18T22:53:53.474Z,5.20
2017-11-18T22:56:21.024Z,7.00
2017-11-18T22:58:48.589Z,5.60
2017-11-18T23:01:16.157Z,6.15
2017-11-18T23:03:43.777Z,7.10
2017-11-18T23:06:12.341Z,6.57
2017-11-18T23:08:42.267Z,5.10
2017-11-18T23:11:09.867Z,6.97
2017-11-18T23:13:37.432Z,8.65
2017-11-18T23:16:05.744Z,6.22
2017-11-18T23:18:33.285Z,5.30
2017-11-18T23:21:02.808Z,6.65
2017-11-18T23:23:30.411Z,6.10
2017-11-18T23:25:58.074Z,7.10
2017-11-18T23:28:25.651Z,5.72
2017-11-18T23:30:53.199Z,7.15
2017-11-18T23:33:20.740Z,7.85
2017-11-18T23:35:48.429Z,6.87
2017-11-18T23:38:16.088Z,7.20
2017-11-18T23:40:43.785Z,6.85
2017-11-18T23:43:11.336Z,6.35
2017-11-18T23:45:40.924Z,7.07
2017-11-18T23:48:08.477Z,7.07
2017-11-18T23:50:36.140Z,6.28
2017-11-18T23:53:03.703Z,6.10
2017-11-18T23:55:31.244Z,7.05
2017-11-18T23:57:58.772Z,6.12
